createdAt,value
2023-05-07T00:01:39.597Z,1.52
2023-05-07T00:04:07.213Z,2.90
2023-05-07T00:06:34.320Z,3.83
2023-05-07T00:09:01.982Z,2.50
2023-05-07T00:11:29.221Z,2.05
2023-05-07T00:13:56.027Z,6.28
2023-05-07T00:16:23.014Z,2.15
2023-05-07T00:18:49.805Z,1.75
2023-05-07T00:21:16.702Z,2.90
2023-05-07T00:23:49.103Z,4.03
2023-05-07T00:26:15.858Z,2.38
2023-05-07T00:28:47.610Z,5.25
2023-05-07T00:31:14.305Z,1.95
2023-05-07T00:33:41.074Z,1.25
2023-05-07T00:36:10.793Z,3.60
2023-05-07T00:38:37.542Z,2.55
2023-05-07T00:41:04.457Z,2.50
2023-05-07T00:43:31.181Z,3.60
2023-05-07T00:45:57.945Z,1.60
2023-05-07T00:48:26.003Z,3.67
2023-05-07T00:50:53.238Z,4.18
2023-05-07T00:53:20.428Z,2.10
2023-05-07T00:55:47.311Z,0.75
2023-05-07T00:58:14.059Z,2.67
2023-05-07T01:00:41.567Z,1.77
2023-05-07T01:03:09.172Z,2.33
2023-05-07T01:05:36.491Z,0.98
2023-05-07T01:08:05.256Z,3.58
2023-05-07T01:10:32.306Z,1.63
2023-05-07T01:13:00.570Z,1.75
2023-05-07T01:15:27.704Z,2.45
2023-05-07T01:17:54.510Z,2.70
2023-05-07T01:20:28.951Z,1.38
2023-05-07T01:22:58.220Z,1.40
2023-05-07T01:25:25.631Z,1.65
2023-05-07T01:27:55.701Z,4.50
2023-05-07T01:30:27.448Z,3.00
2023-05-07T01:33:07.945Z,1.80
2023-05-07T01:35:44.858Z,2.42
2023-05-07T01:38:12.418Z,1.92
2023-05-07T01:40:39.661Z,0.75
2023-05-07T01:43:07.335Z,0.52
2023-05-07T01:45:36.382Z,4.25
2023-05-07T01:48:04.312Z,1.85
2023-05-07T01:50:31.994Z,0.98
2023-05-07T01:52:58.745Z,2.38
2023-05-07T01:55:25.473Z,0.98
2023-05-07T01:57:52.124Z,1.75
2023-05-07T02:00:20.022Z,2.45
2023-05-07T02:02:46.901Z,2.35
2023-05-07T02:05:27.409Z,3.97
2023-05-07T02:08:02.468Z,2.25
2023-05-07T02:10:30.603Z,2.78
2023-05-07T02:12:57.560Z,1.15
2023-05-07T02:15:24.685Z,4.20
2023-05-07T02:18:03.974Z,1.58
2023-05-07T02:20:30.887Z,2.85
2023-05-07T02:22:57.672Z,3.10
2023-05-07T02:25:26.245Z,2.30
2023-05-07T02:27:52.933Z,3.20
2023-05-07T02:30:22.913Z,5.00
2023-05-07T02:32:53.118Z,5.40
2023-05-07T02:35:19.906Z,5.05
2023-05-07T02:37:46.661Z,1.73
2023-05-07T02:40:14.268Z,2.33
2023-05-07T02:42:41.104Z,9.13
2023-05-07T02:45:08.492Z,3.47
2023-05-07T02:47:35.791Z,4.68
2023-05-07T02:50:04.670Z,2.33
2023-05-07T02:52:31.597Z,3.42
2023-05-07T02:54:59.309Z,3.55
2023-05-07T02:57:26.095Z,6.03
2023-05-07T02:59:53.098Z,2.97
2023-05-07T03:02:21.426Z,5.15
2023-05-07T03:04:48.168Z,5.03
2023-05-07T03:07:20.137Z,1.48
2023-05-07T03:09:46.792Z,3.03
2023-05-07T03:12:13.653Z,1.30
2023-05-07T03:14:40.295Z,2.63
2023-05-07T03:17:07.008Z,6.20
2023-05-07T03:19:33.785Z,1.50
2023-05-07T03:22:00.535Z,1.98
2023-05-07T03:24:27.455Z,2.53
2023-05-07T03:26:54.183Z,1.83
2023-05-07T03:29:20.959Z,2.53
2023-05-07T03:31:47.882Z,1.95
2023-05-07T03:34:14.656Z,1.35
2023-05-07T03:36:41.468Z,2.38
2023-05-07T03:39:11.592Z,4.97
2023-05-07T03:41:40.816Z,4.30
2023-05-07T03:44:07.621Z,6.65
2023-05-07T03:46:35.506Z,2.10
2023-05-07T03:49:03.022Z,2.10
2023-05-07T03:51:31.167Z,3.10
2023-05-07T03:53:58.215Z,1.42
2023-05-07T03:56:27.684Z,4.03
2023-05-07T03:58:56.071Z,1.98
2023-05-07T04:01:22.837Z,4.15
2023-05-07T04:03:49.650Z,3.95
2023-05-07T04:06:17.706Z,2.65
2023-05-07T04:08:46.866Z,1.73
2023-05-07T04:11:14.154Z,15.88
2023-05-07T04:13:40.872Z,6.00
2023-05-07T04:16:09.457Z,2.60
2023-05-07T04:18:39.709Z,3.78
2023-05-07T04:21:06.990Z,3.88
2023-05-07T04:23:36.588Z,5.07
2023-05-07T04:26:08.110Z,4.80
2023-05-07T04:28:41.730Z,3.95
2023-05-07T04:31:09.035Z,3.75
2023-05-07T04:33:37.483Z,10.02
2023-05-07T04:36:05.945Z,9.85
2023-05-07T04:38:38.297Z,14.52
2023-05-07T04:41:06.388Z,14.77
2023-05-07T04:43:36.438Z,7.32
2023-05-07T04:46:03.238Z,7.78
2023-05-07T04:48:31.070Z,8.15
2023-05-07T04:50:59.171Z,3.47
2023-05-07T04:53:26.227Z,2.67
2023-05-07T04:55:58.320Z,3.30
2023-05-07T04:58:28.689Z,5.00
2023-05-07T05:00:55.797Z,4.65
2023-05-07T05:03:22.596Z,5.15
2023-05-07T05:05:53.740Z,3.28
2023-05-07T05:08:22.200Z,1.80
2023-05-07T05:10:51.108Z,2.63
2023-05-07T05:13:18.733Z,2.42
2023-05-07T05:15:46.786Z,3.85
2023-05-07T05:18:13.661Z,6.15
2023-05-07T05:20:40.778Z,2.38
2023-05-07T05:23:08.932Z,3.30
2023-05-07T05:25:35.992Z,1.75
2023-05-07T05:28:02.959Z,5.03
2023-05-07T05:30:30.821Z,1.77
2023-05-07T05:32:57.563Z,2.00
2023-05-07T05:35:24.323Z,2.03
2023-05-07T05:37:51.275Z,5.93
2023-05-07T05:40:19.300Z,6.93
2023-05-07T05:42:47.495Z,4.85
2023-05-07T05:45:14.849Z,14.00
2023-05-07T05:47:42.450Z,4.30
2023-05-07T05:50:10.426Z,2.40
2023-05-07T05:52:37.781Z,5.68
2023-05-07T05:55:04.983Z,5.40
2023-05-07T05:57:31.849Z,4.82
2023-05-07T05:59:58.916Z,3.80
2023-05-07T06:02:25.772Z,7.95
2023-05-07T06:04:52.795Z,4.95
2023-05-07T06:07:22.141Z,4.70
2023-05-07T06:09:49.554Z,4.65
2023-05-07T06:12:16.617Z,5.65
2023-05-07T06:14:46.452Z,4.53
2023-05-07T06:17:13.550Z,2.78
2023-05-07T06:19:40.413Z,3.78
2023-05-07T06:22:07.482Z,2.45
2023-05-07T06:24:35.149Z,2.17
2023-05-07T06:27:01.872Z,2.67
2023-05-07T06:29:32.502Z,1.80
2023-05-07T06:32:14.108Z,3.42
2023-05-07T06:34:43.236Z,4.30
2023-05-07T06:37:09.976Z,2.30
2023-05-07T06:39:51.100Z,6.65
2023-05-07T06:42:17.917Z,6.78
2023-05-07T06:44:47.712Z,2.85
2023-05-07T06:47:16.837Z,3.75
2023-05-07T06:49:46.295Z,9.32
2023-05-07T06:52:16.494Z,2.95
2023-05-07T06:54:43.495Z,4.45
2023-05-07T06:57:14.118Z,3.42
2023-05-07T06:59:41.314Z,3.38
2023-05-07T07:02:09.532Z,1.00
2023-05-07T07:04:36.873Z,2.58
2023-05-07T07:07:07.112Z,1.40
2023-05-07T07:09:33.901Z,1.02
2023-05-07T07:12:01.604Z,2.33
2023-05-07T07:14:28.913Z,3.92
2023-05-07T07:16:55.634Z,2.58
2023-05-07T07:19:24.046Z,2.08
2023-05-07T07:21:53.603Z,3.38
2023-05-07T07:24:22.286Z,2.28
2023-05-07T07:26:53.218Z,2.15
2023-05-07T07:29:21.442Z,1.30
2023-05-07T07:31:50.557Z,0.65
2023-05-07T07:34:20.039Z,3.40
2023-05-07T07:36:47.207Z,1.05
2023-05-07T07:39:17.932Z,1.08
2023-05-07T07:41:46.319Z,1.27
2023-05-07T07:44:16.004Z,0.93
2023-05-07T07:46:46.776Z,0.93
2023-05-07T07:49:13.969Z,1.45
2023-05-07T07:51:42.115Z,4.50
2023-05-07T07:54:10.761Z,0.65
2023-05-07T07:56:39.176Z,2.53
2023-05-07T07:59:07.144Z,7.20
2023-05-07T08:01:35.413Z,4.22
2023-05-07T08:04:04.452Z,4.25
2023-05-07T08:06:33.998Z,2.42
2023-05-07T08:09:03.277Z,3.45
2023-05-07T08:11:30.072Z,2.92
2023-05-07T08:13:59.926Z,1.52
2023-05-07T08:16:27.548Z,1.15
2023-05-07T08:18:54.282Z,1.48
2023-05-07T08:21:21.246Z,2.92
2023-05-07T08:23:48.250Z,4.85
2023-05-07T08:26:14.963Z,3.22
2023-05-07T08:28:42.610Z,2.08
2023-05-07T08:31:09.437Z,2.20
2023-05-07T08:33:39.630Z,2.70
2023-05-07T08:36:06.672Z,3.38
2023-05-07T08:38:33.776Z,1.83
2023-05-07T08:41:00.511Z,1.75
2023-05-07T08:43:32.688Z,4.55
2023-05-07T08:46:03.153Z,2.85
2023-05-07T08:48:33.775Z,3.42
2023-05-07T08:51:07.390Z,3.95
2023-05-07T08:53:35.103Z,2.65
2023-05-07T08:56:02.206Z,2.28
2023-05-07T08:58:30.071Z,1.52
2023-05-07T09:00:57.278Z,0.82
2023-05-07T09:03:25.051Z,1.92
2023-05-07T09:05:54.149Z,0.65
2023-05-07T09:08:26.401Z,0.50
2023-05-07T09:10:55.620Z,1.45
2023-05-07T09:13:24.841Z,2.50
2023-05-07T09:15:51.840Z,4.70
2023-05-07T09:18:19.856Z,4.20
2023-05-07T09:20:48.675Z,1.27
2023-05-07T09:23:18.398Z,8.07
2023-05-07T09:25:45.336Z,0.70
2023-05-07T09:28:27.111Z,3.05
2023-05-07T09:30:53.864Z,0.73
2023-05-07T09:33:21.967Z,1.05
2023-05-07T09:35:52.907Z,0.63
2023-05-07T09:38:22.398Z,1.00
2023-05-07T09:41:12.649Z,1.27
2023-05-07T09:43:56.992Z,1.17
2023-05-07T09:46:31.629Z,1.50
2023-05-07T09:49:03.231Z,0.73
2023-05-07T09:51:50.000Z,2.45
2023-05-07T09:54:18.617Z,3.15
2023-05-07T09:56:55.748Z,0.75
2023-05-07T09:59:29.927Z,0.68
2023-05-07T10:02:02.077Z,2.55
2023-05-07T10:04:31.652Z,3.78
2023-05-07T10:06:59.739Z,0.60
2023-05-07T10:09:27.791Z,3.67
2023-05-07T10:11:55.369Z,1.52
2023-05-07T10:14:22.750Z,0.60
2023-05-07T10:16:50.232Z,1.27
2023-05-07T10:19:18.756Z,0.50
2023-05-07T10:22:05.749Z,2.10
2023-05-07T10:24:38.495Z,1.30
2023-05-07T10:27:13.625Z,3.70
2023-05-07T10:29:54.339Z,0.60
2023-05-07T10:32:52.029Z,0.40
2023-05-07T10:35:32.915Z,1.02
2023-05-07T10:38:02.055Z,0.00
2023-05-07T10:40:32.695Z,0.90
2023-05-07T10:43:08.571Z,0.52
2023-05-07T10:45:42.419Z,0.47
2023-05-07T10:48:28.878Z,0.55
2023-05-07T10:51:22.778Z,0.93
2023-05-07T10:54:12.054Z,1.10
2023-05-07T10:56:44.489Z,2.30
2023-05-07T10:59:21.982Z,0.63
2023-05-07T11:02:05.205Z,0.63
2023-05-07T11:05:24.740Z,0.93
2023-05-07T11:08:10.476Z,1.67
2023-05-07T11:11:03.534Z,6.28
2023-05-07T11:13:49.304Z,1.33
2023-05-07T11:16:39.549Z,1.17
2023-05-07T11:19:52.386Z,0.75
2023-05-07T11:22:43.521Z,2.53
2023-05-07T11:25:24.738Z,0.25
2023-05-07T11:28:04.843Z,0.20
2023-05-07T11:30:33.016Z,2.80
2023-05-07T11:33:02.837Z,1.92
2023-05-07T11:35:29.991Z,0.00
2023-05-07T11:38:02.758Z,2.08
2023-05-07T11:40:32.678Z,1.23
2023-05-07T11:42:59.372Z,0.17
2023-05-07T11:45:26.593Z,0.70
2023-05-07T11:47:53.432Z,4.32
2023-05-07T11:50:20.740Z,1.98
2023-05-07T11:52:56.505Z,2.65
2023-05-07T11:55:25.921Z,1.40
2023-05-07T11:57:58.687Z,1.75
2023-05-07T12:00:25.556Z,1.02
2023-05-07T12:02:52.743Z,4.07
2023-05-07T12:05:19.603Z,0.80
2023-05-07T12:07:46.752Z,2.13
2023-05-07T12:10:14.386Z,0.57
2023-05-07T12:12:46.556Z,1.50
2023-05-07T12:15:23.609Z,0.80
2023-05-07T12:17:51.405Z,2.60
2023-05-07T12:20:19.651Z,0.95
2023-05-07T12:22:47.752Z,5.80
2023-05-07T12:25:20.828Z,0.40
2023-05-07T12:27:53.420Z,0.93
2023-05-07T12:30:21.765Z,1.45
2023-05-07T12:32:53.508Z,1.88
2023-05-07T12:35:30.978Z,2.40
2023-05-07T12:38:00.781Z,0.60
2023-05-07T12:40:48.203Z,2.63
2023-05-07T12:43:22.560Z,0.55
2023-05-07T12:45:51.433Z,0.35
2023-05-07T12:48:18.663Z,2.72
2023-05-07T12:50:46.051Z,1.17
2023-05-07T12:53:14.149Z,0.25
2023-05-07T12:55:46.483Z,1.57
2023-05-07T12:58:21.608Z,0.90
2023-05-07T13:00:51.150Z,2.08
2023-05-07T13:03:39.030Z,0.68
2023-05-07T13:06:08.245Z,0.73
2023-05-07T13:08:36.034Z,2.95
2023-05-07T13:11:07.046Z,0.73
2023-05-07T13:13:37.828Z,1.33
2023-05-07T13:16:05.909Z,1.35
2023-05-07T13:18:34.591Z,1.38
2023-05-07T13:21:02.221Z,0.30
2023-05-07T13:23:29.731Z,0.85
2023-05-07T13:26:01.114Z,4.55
2023-05-07T13:28:31.193Z,0.70
2023-05-07T13:30:58.819Z,1.17
2023-05-07T13:33:25.720Z,2.28
2023-05-07T13:35:52.472Z,1.95
2023-05-07T13:38:20.080Z,1.23
2023-05-07T13:40:46.769Z,0.20
2023-05-07T13:43:13.447Z,5.30
2023-05-07T13:45:40.134Z,2.10
2023-05-07T13:48:06.888Z,2.42
2023-05-07T13:50:33.610Z,2.95
2023-05-07T13:53:00.251Z,1.23
2023-05-07T13:55:27.179Z,2.85
2023-05-07T13:57:59.021Z,1.55
2023-05-07T14:00:28.494Z,2.75
2023-05-07T14:02:56.797Z,1.38
2023-05-07T14:05:27.673Z,0.27
2023-05-07T14:07:55.215Z,2.53
2023-05-07T14:10:21.941Z,2.25
2023-05-07T14:12:48.756Z,2.65
2023-05-07T14:15:17.001Z,3.90
2023-05-07T14:17:44.602Z,3.67
2023-05-07T14:20:13.540Z,3.55
2023-05-07T14:22:40.680Z,7.80
2023-05-07T14:25:08.153Z,11.15
2023-05-07T14:27:34.941Z,3.97
2023-05-07T14:30:01.803Z,6.75
2023-05-07T14:32:28.625Z,23.85
2023-05-07T14:34:55.514Z,11.48
2023-05-07T14:37:22.279Z,5.45
2023-05-07T14:39:51.116Z,30.25
2023-05-07T14:42:18.553Z,16.52
2023-05-07T14:44:46.749Z,66.70
2023-05-07T14:47:14.158Z,13.57
2023-05-07T14:49:41.872Z,35.08
2023-05-07T14:52:10.988Z,61.65
2023-05-07T14:54:39.253Z,7.13
2023-05-07T14:57:07.238Z,27.45
2023-05-07T14:59:34.034Z,9.13
2023-05-07T15:02:01.914Z,7.95
2023-05-07T15:04:29.858Z,12.07
2023-05-07T15:06:57.072Z,5.35
2023-05-07T15:09:23.794Z,22.83
2023-05-07T15:11:50.541Z,18.30
2023-05-07T15:14:17.430Z,22.25
2023-05-07T15:16:44.550Z,51.28
2023-05-07T15:19:11.370Z,27.83
2023-05-07T15:21:38.056Z,51.55
2023-05-07T15:24:04.876Z,112.45
2023-05-07T15:26:31.524Z,20.92
2023-05-07T15:28:58.378Z,42.58
2023-05-07T15:31:26.455Z,35.22
2023-05-07T15:33:53.367Z,78.15
2023-05-07T15:36:21.454Z,81.70
2023-05-07T15:38:48.192Z,48.55
2023-05-07T15:41:15.188Z,44.75
2023-05-07T15:43:47.007Z,47.88
2023-05-07T15:46:17.912Z,14.27
2023-05-07T15:48:44.635Z,20.80
2023-05-07T15:51:11.678Z,7.78
2023-05-07T15:53:38.650Z,41.88
2023-05-07T15:56:05.458Z,7.35
2023-05-07T15:58:32.167Z,8.43
2023-05-07T16:01:01.035Z,22.95
2023-05-07T16:03:29.242Z,23.67
2023-05-07T16:06:02.656Z,61.50
2023-05-07T16:08:29.557Z,24.58
2023-05-07T16:10:56.317Z,50.58
2023-05-07T16:13:24.896Z,58.70
2023-05-07T16:16:01.061Z,53.63
2023-05-07T16:18:27.778Z,18.00
2023-05-07T16:20:54.657Z,36.72
2023-05-07T16:23:21.680Z,41.08
2023-05-07T16:25:49.866Z,36.53
2023-05-07T16:28:16.842Z,106.60
2023-05-07T16:30:43.765Z,32.85
2023-05-07T16:33:10.601Z,76.53
2023-05-07T16:35:47.770Z,8.73
2023-05-07T16:38:14.421Z,7.00
2023-05-07T16:40:41.858Z,7.88
2023-05-07T16:43:08.701Z,16.17
2023-05-07T16:45:35.548Z,7.03
2023-05-07T16:48:03.383Z,35.20
2023-05-07T16:50:30.397Z,25.17
2023-05-07T16:52:57.090Z,6.70
2023-05-07T16:55:23.693Z,6.90
2023-05-07T16:57:50.466Z,4.40
2023-05-07T17:00:18.187Z,5.40
2023-05-07T17:02:45.891Z,6.20
2023-05-07T17:05:12.935Z,7.97
2023-05-07T17:07:40.023Z,7.65
2023-05-07T17:10:07.216Z,7.82
2023-05-07T17:12:35.887Z,6.60
2023-05-07T17:15:03.202Z,7.53
2023-05-07T17:17:30.150Z,4.78
2023-05-07T17:19:57.137Z,7.18
2023-05-07T17:22:25.228Z,6.75
2023-05-07T17:24:52.343Z,10.38
2023-05-07T17:27:21.654Z,7.57
2023-05-07T17:29:48.404Z,9.30
2023-05-07T17:32:15.245Z,9.60
2023-05-07T17:34:42.052Z,14.30
2023-05-07T17:37:09.013Z,13.77
2023-05-07T17:39:35.681Z,14.25
2023-05-07T17:42:02.513Z,10.50
2023-05-07T17:44:29.421Z,11.93
2023-05-07T17:46:56.239Z,8.75
2023-05-07T17:49:22.941Z,12.43
2023-05-07T17:51:55.144Z,8.73
2023-05-07T17:54:24.370Z,9.52
2023-05-07T17:56:51.243Z,7.23
2023-05-07T17:59:18.205Z,8.68
2023-05-07T18:01:45.425Z,15.27
2023-05-07T18:04:12.199Z,9.00
2023-05-07T18:06:39.822Z,14.48
2023-05-07T18:09:06.649Z,5.82
2023-05-07T18:11:33.755Z,9.35
2023-05-07T18:14:01.274Z,6.53
2023-05-07T18:16:28.110Z,7.07
2023-05-07T18:18:55.763Z,9.15
2023-05-07T18:21:22.649Z,5.20
2023-05-07T18:23:49.651Z,8.40
2023-05-07T18:26:16.690Z,7.53
2023-05-07T18:28:43.817Z,5.18
2023-05-07T18:31:10.971Z,4.72
2023-05-07T18:33:37.605Z,4.93
2023-05-07T18:36:04.489Z,5.47
2023-05-07T18:38:32.665Z,5.70
2023-05-07T18:41:05.752Z,4.63
2023-05-07T18:43:33.797Z,4.70
2023-05-07T18:46:00.914Z,8.18
2023-05-07T18:48:27.737Z,4.60
2023-05-07T18:50:54.440Z,5.53
2023-05-07T18:53:21.370Z,4.88
2023-05-07T18:55:51.986Z,4.97
2023-05-07T18:58:20.095Z,5.32
2023-05-07T19:00:51.398Z,8.40
2023-05-07T19:03:18.343Z,10.10
2023-05-07T19:05:45.863Z,7.05
2023-05-07T19:08:13.026Z,6.28
2023-05-07T19:10:39.729Z,9.43
2023-05-07T19:13:06.679Z,4.93
2023-05-07T19:15:33.464Z,6.00
2023-05-07T19:18:00.504Z,19.42
2023-05-07T19:20:27.377Z,10.63
2023-05-07T19:22:53.992Z,5.28
2023-05-07T19:25:20.764Z,7.18
2023-05-07T19:27:48.122Z,6.68
2023-05-07T19:30:14.994Z,7.82
2023-05-07T19:32:41.704Z,8.48
2023-05-07T19:35:09.059Z,12.05
2023-05-07T19:37:35.887Z,11.68
2023-05-07T19:40:06.562Z,13.57
2023-05-07T19:42:33.319Z,17.55
2023-05-07T19:45:00.198Z,16.25
2023-05-07T19:47:26.899Z,16.42
2023-05-07T19:49:53.606Z,14.02
2023-05-07T19:52:20.304Z,16.92
2023-05-07T19:54:47.383Z,17.70
2023-05-07T19:57:15.353Z,12.40
2023-05-07T19:59:42.033Z,14.40
2023-05-07T20:02:08.902Z,12.95
2023-05-07T20:04:38.122Z,14.18
2023-05-07T20:07:05.829Z,12.73
2023-05-07T20:09:32.681Z,13.05
2023-05-07T20:12:00.809Z,11.25
2023-05-07T20:14:27.845Z,11.32
2023-05-07T20:16:54.591Z,14.48
2023-05-07T20:19:21.293Z,20.75
2023-05-07T20:21:48.054Z,18.70
2023-05-07T20:24:14.730Z,19.63
2023-05-07T20:26:41.647Z,14.80
2023-05-07T20:29:08.304Z,15.02
2023-05-07T20:31:37.744Z,11.57
2023-05-07T20:34:04.443Z,11.30
2023-05-07T20:36:31.361Z,14.57
2023-05-07T20:38:58.068Z,8.82
2023-05-07T20:41:27.839Z,6.70
2023-05-07T20:43:55.715Z,8.15
2023-05-07T20:46:23.067Z,6.22
2023-05-07T20:48:50.252Z,7.90
2023-05-07T20:51:17.186Z,8.15
2023-05-07T20:53:46.010Z,8.18
2023-05-07T20:56:14.344Z,5.90
2023-05-07T20:58:41.198Z,5.18
2023-05-07T21:01:08.066Z,7.53
2023-05-07T21:03:34.816Z,7.32
2023-05-07T21:06:01.912Z,7.80
2023-05-07T21:08:28.639Z,11.25
2023-05-07T21:10:55.693Z,7.75
2023-05-07T21:13:23.212Z,6.55
2023-05-07T21:15:50.645Z,6.47
2023-05-07T21:18:18.093Z,6.78
2023-05-07T21:20:44.789Z,9.02
2023-05-07T21:23:11.525Z,4.57
2023-05-07T21:25:38.908Z,6.30
2023-05-07T21:28:08.288Z,5.45
2023-05-07T21:30:35.955Z,4.85
2023-05-07T21:33:03.061Z,8.02
2023-05-07T21:35:29.903Z,4.93
2023-05-07T21:37:56.510Z,3.78
2023-05-07T21:40:23.186Z,3.78
2023-05-07T21:42:50.055Z,7.35
2023-05-07T21:45:16.819Z,7.45
2023-05-07T21:47:43.546Z,8.88
2023-05-07T21:50:11.049Z,7.72
2023-05-07T21:52:38.179Z,6.80
2023-05-07T21:55:05.257Z,5.18
2023-05-07T21:57:31.968Z,7.05
2023-05-07T21:59:58.588Z,6.57
2023-05-07T22:02:25.933Z,7.93
2023-05-07T22:04:52.898Z,9.10
2023-05-07T22:07:19.569Z,5.93
2023-05-07T22:09:46.194Z,9.95
2023-05-07T22:12:12.847Z,13.10
2023-05-07T22:14:39.556Z,8.10
2023-05-07T22:17:06.294Z,6.28
2023-05-07T22:19:32.930Z,12.40
2023-05-07T22:22:01.256Z,6.47
2023-05-07T22:24:29.399Z,6.47
2023-05-07T22:26:56.180Z,5.07
2023-05-07T22:29:23.645Z,5.85
2023-05-07T22:31:50.682Z,7.10
2023-05-07T22:34:17.546Z,6.47
2023-05-07T22:36:44.435Z,6.88
2023-05-07T22:39:11.679Z,6.00
2023-05-07T22:41:38.885Z,9.77
2023-05-07T22:44:06.530Z,4.38
2023-05-07T22:46:33.308Z,6.57
2023-05-07T22:49:00.151Z,3.45
2023-05-07T22:51:27.948Z,3.30
2023-05-07T22:53:54.546Z,4.72
2023-05-07T22:56:21.296Z,5.22
2023-05-07T22:58:49.474Z,5.40
2023-05-07T23:01:18.544Z,4.47
2023-05-07T23:03:45.458Z,4.15
2023-05-07T23:06:12.722Z,2.95
2023-05-07T23:08:42.130Z,3.00
2023-05-07T23:11:08.877Z,3.22
2023-05-07T23:13:35.561Z,3.53
2023-05-07T23:16:02.520Z,9.02
2023-05-07T23:18:32.471Z,4.22
2023-05-07T23:20:59.410Z,7.90
2023-05-07T23:23:29.789Z,3.60
2023-05-07T23:25:56.477Z,6.20
2023-05-07T23:28:23.107Z,5.90
2023-05-07T23:30:49.818Z,3.42
2023-05-07T23:33:16.795Z,5.95
2023-05-07T23:35:43.554Z,3.28
2023-05-07T23:38:10.120Z,4.22
2023-05-07T23:40:36.756Z,3.45
2023-05-07T23:43:03.383Z,3.67
2023-05-07T23:45:30.270Z,5.32
2023-05-07T23:47:57.360Z,2.83
2023-05-07T23:50:24.291Z,4.95
2023-05-07T23:52:50.927Z,4.47
2023-05-07T23:55:17.823Z,2.80
2023-05-07T23:57:45.093Z,2.20
